Time;durP1;ratioP1;P1;durP2;ratioP2;P2;SDS_P1;SDS_P2;PMS_P1;PMS_P2;Temp;Humidity;BMP_temperature;BMP_pressure;BME280_temperature;BME280_humidity;BME280_pressure;Samples;Min_cycle;Max_cycle;Signal;HPM_P1;HPM_P2
2023/11/30 00:01:54;;;;;;;;;;;;;;;-0.58;100.00;95208.50;5066941;28;20094;-83
2023/11/30 00:04:20;;;;;;;;;;;;;;;-0.60;100.00;95205.31;5066392;28;19950;-83
2023/11/30 00:06:46;;;;;;;;;;;;;;;-0.62;100.00;95205.47;5067021;28;19934;-84
2023/11/30 00:09:12;;;;;;;;;;;;;;;-0.62;100.00;95202.91;5066994;28;20200;-81
2023/11/30 00:11:37;;;;;;;;;;;;;;;-0.60;100.00;95201.94;5066193;28;19935;-72
2023/11/30 00:14:03;;;;;;;;;;;;;;;-0.59;100.00;95199.16;5066149;28;20248;-72
2023/11/30 00:16:29;;;;;;;;;;;;;;;-0.60;100.00;95197.56;5066605;28;19966;-71
2023/11/30 00:18:55;;;;;;;;;;;;;;;-0.58;100.00;95193.06;5066493;28;19942;-71
2023/11/30 00:21:21;;;;;;;;;;;;;;;-0.56;100.00;95180.78;5066042;28;20052;-71
2023/11/30 00:23:47;;;;;;;;;;;;;;;-0.57;100.00;95171.47;5066009;28;19957;-72
2023/11/30 00:26:15;;;;;;;;;;;;;;;-0.57;100.00;95178.41;5066463;28;20016;-71
2023/11/30 00:28:41;;;;;;;;;;;;;;;-0.57;100.00;95173.25;5065957;28;19949;-70
2023/11/30 00:31:07;;;;;;;;;;;;;;;-0.56;100.00;95162.78;5066025;28;19954;-84
2023/11/30 00:33:33;;;;;;;;;;;;;;;-0.55;100.00;95166.94;5048050;28;19944;-85
2023/11/30 00:35:59;;;;;;;;;;;;;;;-0.54;100.00;95162.59;5065880;28;19939;-84
2023/11/30 00:38:25;;;;;;;;;;;;;;;-0.52;100.00;95160.66;5066528;28;20202;-84
2023/11/30 00:40:51;;;;;;;;;;;;;;;-0.52;100.00;95155.50;5065690;28;19987;-86
2023/11/30 00:43:17;;;;;;;;;;;;;;;-0.52;100.00;95147.78;5066394;28;19950;-86
2023/11/30 00:45:43;;;;;;;;;;;;;;;-0.52;100.00;95147.78;5065573;28;20152;-72
2023/11/30 00:48:09;;;;;;;;;;;;;;;-0.53;100.00;95159.03;5065693;28;20119;-80
2023/11/30 00:50:35;;;;;;;;;;;;;;;-0.53;100.00;95151.31;5065459;28;20014;-68
2023/11/30 00:53:01;;;;;;;;;;;;;;;-0.53;100.00;95153.88;5065370;28;19960;-69
2023/11/30 00:55:27;;;;;;;;;;;;;;;-0.55;100.00;95158.41;5065458;28;19972;-69
2023/11/30 00:57:52;;;;;;;;;;;;;;;-0.55;100.00;95163.56;5065879;28;20223;-70
2023/11/30 01:00:18;;;;;;;;;;;;;;;-0.57;100.00;95160.38;5065848;28;19938;-69
2023/11/30 01:02:44;;;;;;;;;;;;;;;-0.59;100.00;95162.31;5065306;28;19934;-69
2023/11/30 01:05:10;;;;;;;;;;;;;;;-0.59;100.00;95157.19;5065188;28;20292;-71
2023/11/30 01:07:36;;;;;;;;;;;;;;;-0.60;100.00;95166.69;5065744;28;19940;-73
2023/11/30 01:10:03;;;;;;;;;;;;;;;-0.60;100.00;95165.88;5065529;28;20249;-72
2023/11/30 01:12:29;;;;;;;;;;;;;;;-0.63;100.00;95160.13;5065684;28;19942;-72
2023/11/30 01:14:55;;;;;;;;;;;;;;;-0.63;100.00;95159.31;5047917;28;19977;-72
2023/11/30 01:17:22;;;;;;;;;;;;;;;-0.66;100.00;95155.31;5065753;28;19948;-72
2023/11/30 01:19:48;;;;;;;;;;;;;;;-0.68;100.00;95146.97;5064888;28;20101;-72
2023/11/30 01:22:14;;;;;;;;;;;;;;;-0.69;100.00;95139.44;5064852;28;20252;-72
2023/11/30 01:24:40;;;;;;;;;;;;;;;-0.70;100.00;95141.22;5064943;28;19937;-86
2023/11/30 01:27:06;;;;;;;;;;;;;;;-0.71;100.00;95142.19;5047362;28;19950;-69
2023/11/30 01:29:32;;;;;;;;;;;;;;;-0.73;100.00;95151.88;5065094;28;19940;-69
2023/11/30 01:31:57;;;;;;;;;;;;;;;-0.73;100.00;95138.22;5065128;28;19982;-69
2023/11/30 01:34:23;;;;;;;;;;;;;;;-0.77;100.00;95142.91;5064626;28;20248;-69
2023/11/30 01:36:49;;;;;;;;;;;;;;;-0.79;100.00;95138.94;5064520;28;19944;-69
2023/11/30 01:39:15;;;;;;;;;;;;;;;-0.83;100.00;95157.28;5064458;28;19943;-69
2023/11/30 01:41:41;;;;;;;;;;;;;;;-0.85;100.00;95150.72;5064438;28;19938;-71
2023/11/30 01:44:08;;;;;;;;;;;;;;;-0.90;100.00;95143.56;5064296;28;19959;-69
2023/11/30 01:46:36;;;;;;;;;;;;;;;-0.95;100.00;95147.63;5064178;28;20153;-69
2023/11/30 01:49:03;;;;;;;;;;;;;;;-0.99;100.00;95138.66;5064368;28;19947;-69
2023/11/30 01:51:31;;;;;;;;;;;;;;;-1.01;100.00;95133.69;5064284;28;19954;-69
2023/11/30 01:53:59;;;;;;;;;;;;;;;-1.03;100.00;95120.19;5064254;28;19941;-69
2023/11/30 01:56:25;;;;;;;;;;;;;;;-1.05;100.00;95120.41;5064172;28;19945;-69
2023/11/30 01:58:51;;;;;;;;;;;;;;;-1.07;100.00;95132.66;5064174;28;19970;-69
2023/11/30 02:01:17;;;;;;;;;;;;;;;-1.08;100.00;95128.47;5064197;28;20210;-70
2023/11/30 02:03:43;;;;;;;;;;;;;;;-1.10;100.00;95117.53;5064075;28;20153;-70
2023/11/30 02:06:09;;;;;;;;;;;;;;;-1.13;100.00;95114.56;5064827;28;19950;-70
2023/11/30 02:08:35;;;;;;;;;;;;;;;-1.13;100.00;95101.69;5063070;28;19937;-70
2023/11/30 02:11:01;;;;;;;;;;;;;;;-1.15;100.00;95095.94;5064615;28;19994;-70
2023/11/30 02:13:27;;;;;;;;;;;;;;;-1.16;100.00;95102.81;5063943;28;20005;-70
2023/11/30 02:15:53;;;;;;;;;;;;;;;-1.17;100.00;95098.66;5063350;28;20293;-71
2023/11/30 02:18:19;;;;;;;;;;;;;;;-1.18;100.00;95094.47;5046215;28;19942;-83
2023/11/30 02:20:45;;;;;;;;;;;;;;;-1.21;100.00;95088.91;5063878;28;19997;-87
2023/11/30 02:23:10;;;;;;;;;;;;;;;-1.24;100.00;95088.28;5063873;28;19937;-85
2023/11/30 02:25:36;;;;;;;;;;;;;;;-1.25;100.00;95096.97;5063825;28;19953;-85
2023/11/30 02:28:02;;;;;;;;;;;;;;;-1.27;100.00;95104.06;5064170;28;19939;-85
2023/11/30 02:30:28;;;;;;;;;;;;;;;-1.27;100.00;95108.41;5063645;28;19957;-85
2023/11/30 02:32:54;;;;;;;;;;;;;;;-1.28;100.00;95110.19;5063671;28;19942;-83
2023/11/30 02:35:20;;;;;;;;;;;;;;;-1.28;100.00;95115.34;5062975;28;19959;-81
2023/11/30 02:37:45;;;;;;;;;;;;;;;-1.29;100.00;95118.88;5045914;28;19940;-73
2023/11/30 02:40:11;;;;;;;;;;;;;;;-1.30;100.00;95114.72;5045835;28;19938;-81
2023/11/30 02:42:37;;;;;;;;;;;;;;;-1.31;100.00;95102.81;5045915;28;19942;-81
2023/11/30 02:45:03;;;;;;;;;;;;;;;-1.33;100.00;95089.34;5063881;28;19949;-79
2023/11/30 02:47:29;;;;;;;;;;;;;;;-1.32;100.00;95090.16;5063414;28;19962;-80
2023/11/30 02:49:55;;;;;;;;;;;;;;;-1.33;100.00;95083.41;5063914;28;19972;-81
2023/11/30 02:52:21;;;;;;;;;;;;;;;-1.34;100.00;95080.03;5063447;28;19957;-81
2023/11/30 02:54:47;;;;;;;;;;;;;;;-1.34;100.00;95079.25;5063460;28;19937;-70
2023/11/30 02:57:13;;;;;;;;;;;;;;;-1.31;100.00;95084.03;5063983;28;19937;-71
2023/11/30 02:59:39;;;;;;;;;;;;;;;-1.32;100.00;95079.88;5063476;28;19939;-71
2023/11/30 03:02:05;;;;;;;;;;;;;;;-1.31;100.00;95078.88;5045698;28;20275;-70
2023/11/30 03:04:31;;;;;;;;;;;;;;;-1.33;100.00;95085.97;5063367;28;19937;-70
2023/11/30 03:06:56;;;;;;;;;;;;;;;-1.33;100.00;95094.47;5063727;28;19942;-71
2023/11/30 03:09:22;;;;;;;;;;;;;;;-1.34;100.00;95074.13;5063743;28;20098;-71
2023/11/30 03:11:48;;;;;;;;;;;;;;;-1.34;100.00;95067.19;5045379;28;20168;-71
2023/11/30 03:14:14;;;;;;;;;;;;;;;-1.35;100.00;95057.88;5063271;28;19934;-81
2023/11/30 03:16:40;;;;;;;;;;;;;;;-1.34;100.00;95049.19;5063896;28;19980;-71
2023/11/30 03:19:06;;;;;;;;;;;;;;;-1.33;100.00;95044.84;5063883;28;19962;-70
2023/11/30 03:21:31;;;;;;;;;;;;;;;-1.33;100.00;95042.25;5063196;28;20222;-71
2023/11/30 03:23:57;;;;;;;;;;;;;;;-1.31;100.00;95053.16;5063234;28;19936;-71
2023/11/30 03:26:23;;;;;;;;;;;;;;;-1.30;100.00;95050.44;5063104;28;19943;-71
2023/11/30 03:28:50;;;;;;;;;;;;;;;-1.27;100.00;95044.13;5065698;28;20007;-71
2023/11/30 03:31:16;;;;;;;;;;;;;;;-1.27;100.00;95042.34;5066871;28;19951;-70
2023/11/30 03:33:41;;;;;;;;;;;;;;;-1.24;100.00;95036.84;5067452;28;19975;-83
2023/11/30 03:36:08;;;;;;;;;;;;;;;-1.24;100.00;95030.91;5066980;28;19939;-83
2023/11/30 03:38:33;;;;;;;;;;;;;;;-1.23;100.00;95040.22;5049798;28;19951;-84
2023/11/30 03:40:59;;;;;;;;;;;;;;;-1.24;100.00;95042.00;5066720;28;19939;-84
2023/11/30 03:43:25;;;;;;;;;;;;;;;-1.23;100.00;95029.94;5066708;28;20041;-83
2023/11/30 03:45:51;;;;;;;;;;;;;;;-1.24;100.00;95013.72;5066515;28;19989;-84
2023/11/30 03:48:17;;;;;;;;;;;;;;;-1.24;100.00;95010.31;5067240;28;19958;-84
2023/11/30 03:50:43;;;;;;;;;;;;;;;-1.26;100.00;95009.69;5066601;28;19959;-69
2023/11/30 03:53:08;;;;;;;;;;;;;;;-1.26;100.00;95000.25;5048948;28;19949;-83
2023/11/30 03:55:34;;;;;;;;;;;;;;;-1.27;100.00;95000.41;5066652;28;19939;-83
2023/11/30 03:58:00;;;;;;;;;;;;;;;-1.27;100.00;94996.06;5066438;28;19949;-83
2023/11/30 04:00:26;;;;;;;;;;;;;;;-1.25;100.00;94993.31;5066442;28;19954;-83
2023/11/30 04:02:52;;;;;;;;;;;;;;;-1.26;100.00;94997.66;5068131;28;19945;-85
2023/11/30 04:05:19;;;;;;;;;;;;;;;-1.25;100.00;94995.88;5066606;28;20096;-84
2023/11/30 04:07:45;;;;;;;;;;;;;;;-1.23;100.00;95001.66;5066455;28;19941;-85
2023/11/30 04:10:11;;;;;;;;;;;;;;;-1.23;100.00;94991.34;5067060;28;19945;-72
2023/11/30 04:12:37;;;;;;;;;;;;;;;-1.22;100.00;94995.50;5066991;28;20196;-83
2023/11/30 04:15:04;;;;;;;;;;;;;;;-1.20;100.00;94990.97;5049458;28;19943;-83
2023/11/30 04:17:30;;;;;;;;;;;;;;;-1.20;100.00;94979.91;5032716;28;19953;-83
2023/11/30 04:19:56;;;;;;;;;;;;;;;-1.20;100.00;94988.41;5066501;28;19941;-84
2023/11/30 04:22:22;;;;;;;;;;;;;;;-1.19;100.00;94987.44;5065591;28;19953;-83
2023/11/30 04:24:48;;;;;;;;;;;;;;;-1.18;100.00;94981.31;5066817;28;19937;-84
2023/11/30 04:27:14;;;;;;;;;;;;;;;-1.20;100.00;94962.69;5065996;28;19984;-69
2023/11/30 04:29:40;;;;;;;;;;;;;;;-1.20;100.00;94967.84;5065984;28;19937;-69
2023/11/30 04:32:06;;;;;;;;;;;;;;;-1.20;100.00;94970.41;5066538;28;19953;-69
2023/11/30 04:34:31;;;;;;;;;;;;;;;-1.21;100.00;94968.81;5048182;28;20138;-69
2023/11/30 04:36:57;;;;;;;;;;;;;;;-1.20;100.00;94967.03;5047891;28;19999;-69
2023/11/30 04:39:24;;;;;;;;;;;;;;;-1.23;100.00;94970.78;5065346;28;19949;-69
2023/11/30 04:41:50;;;;;;;;;;;;;;;-1.21;100.00;94973.97;5065676;28;20210;-70
2023/11/30 04:44:16;;;;;;;;;;;;;;;-1.21;100.00;94973.19;5065657;28;19977;-70
2023/11/30 04:46:42;;;;;;;;;;;;;;;-1.21;100.00;94975.75;5065521;28;19967;-71
2023/11/30 04:49:09;;;;;;;;;;;;;;;-1.22;100.00;94967.22;5066026;28;20019;-71
2023/11/30 04:51:35;;;;;;;;;;;;;;;-1.21;100.00;94963.69;5065516;28;19971;-71
2023/11/30 04:54:01;;;;;;;;;;;;;;;-1.21;100.00;94961.13;5065254;28;19937;-71
2023/11/30 04:56:27;;;;;;;;;;;;;;;-1.21;100.00;94955.97;5065412;28;19933;-70
2023/11/30 04:58:53;;;;;;;;;;;;;;;-1.20;100.00;94959.31;5066163;28;20193;-71
2023/11/30 05:01:19;;;;;;;;;;;;;;;-1.20;100.00;94972.97;5065377;28;19974;-71
2023/11/30 05:03:45;;;;;;;;;;;;;;;-1.21;100.00;94970.59;5065890;28;20006;-71
2023/11/30 05:06:10;;;;;;;;;;;;;;;-1.21;100.00;94962.91;5065336;28;19942;-70
2023/11/30 05:08:36;;;;;;;;;;;;;;;-1.22;100.00;94967.22;5065193;28;19950;-69
2023/11/30 05:11:02;;;;;;;;;;;;;;;-1.21;100.00;94965.47;5065609;28;19963;-69
2023/11/30 05:13:28;;;;;;;;;;;;;;;-1.20;100.00;94964.47;5065147;28;19940;-69
2023/11/30 05:15:54;;;;;;;;;;;;;;;-1.19;100.00;94959.16;5065819;28;20195;-69
2023/11/30 05:18:20;;;;;;;;;;;;;;;-1.18;100.00;94958.16;5065770;28;19942;-69
2023/11/30 05:20:46;;;;;;;;;;;;;;;-1.18;100.00;94958.16;5064917;28;19934;-69
2023/11/30 05:23:11;;;;;;;;;;;;;;;-1.17;100.00;94948.69;5065507;28;19946;-69
2023/11/30 05:25:37;;;;;;;;;;;;;;;-1.17;100.00;94954.63;5064945;28;19981;-79
2023/11/30 05:28:04;;;;;;;;;;;;;;;-1.17;100.00;94957.19;5064761;28;19940;-79
2023/11/30 05:30:30;;;;;;;;;;;;;;;-1.14;100.00;94953.47;5064646;28;19951;-77
2023/11/30 05:32:56;;;;;;;;;;;;;;;-1.13;100.00;94955.06;5064665;28;19948;-77
2023/11/30 05:35:22;;;;;;;;;;;;;;;-1.15;100.00;94957.81;5046963;28;19966;-77
2023/11/30 05:37:48;;;;;;;;;;;;;;;-1.14;100.00;94950.88;5065058;28;20124;-78
2023/11/30 05:40:16;;;;;;;;;;;;;;;-1.14;100.00;94945.75;5064588;28;19941;-70
2023/11/30 05:42:43;;;;;;;;;;;;;;;-1.13;100.00;94937.06;5064463;28;19938;-71
2023/11/30 05:45:09;;;;;;;;;;;;;;;-1.13;100.00;94937.84;5064367;28;19967;-71
2023/11/30 05:47:35;;;;;;;;;;;;;;;-1.13;100.00;94932.72;5064889;28;20272;-70
2023/11/30 05:50:01;;;;;;;;;;;;;;;-1.12;100.00;94938.66;5063823;28;19946;-70
2023/11/30 05:52:27;;;;;;;;;;;;;;;-1.11;100.00;94933.31;5064113;28;20146;-70
2023/11/30 05:54:53;;;;;;;;;;;;;;;-1.10;100.00;94927.19;5064269;28;19943;-71
2023/11/30 05:57:19;;;;;;;;;;;;;;;-1.08;100.00;94924.44;5064278;28;19937;-70
2023/11/30 05:59:44;;;;;;;;;;;;;;;-1.07;100.00;94919.13;5064335;28;20246;-81
2023/11/30 06:02:10;;;;;;;;;;;;;;;-1.08;100.00;94922.66;5046346;28;19945;-70
2023/11/30 06:04:37;;;;;;;;;;;;;;;-1.10;100.00;94916.09;5063948;28;19935;-70
2023/11/30 06:07:03;;;;;;;;;;;;;;;-1.13;100.00;94904.41;5064698;28;19947;-70
2023/11/30 06:09:29;;;;;;;;;;;;;;;-1.11;100.00;94905.03;5064063;28;19938;-70
2023/11/30 06:11:54;;;;;;;;;;;;;;;-1.09;100.00;94910.78;5063913;28;19954;-70
2023/11/30 06:14:20;;;;;;;;;;;;;;;-1.07;100.00;94902.88;5063975;28;20227;-71
2023/11/30 06:16:46;;;;;;;;;;;;;;;-1.05;100.00;94906.06;5063954;28;19933;-70
2023/11/30 06:19:12;;;;;;;;;;;;;;;-1.05;100.00;94906.88;5063880;28;19937;-69
2023/11/30 06:21:38;;;;;;;;;;;;;;;-1.03;100.00;94906.66;5064178;28;19944;-72
2023/11/30 06:24:04;;;;;;;;;;;;;;;-1.03;100.00;94904.91;5063311;28;20257;-72
2023/11/30 06:26:30;;;;;;;;;;;;;;;-1.02;100.00;94885.91;5064046;28;19936;-71
2023/11/30 06:28:56;;;;;;;;;;;;;;;-1.00;100.00;94883.16;5063904;28;19937;-72
2023/11/30 06:31:22;;;;;;;;;;;;;;;-1.02;100.00;94885.91;5063891;28;19959;-71
2023/11/30 06:33:48;;;;;;;;;;;;;;;-0.79;100.00;94884.13;5064494;28;19943;-71
2023/11/30 06:36:14;;;;;;;;;;;;;;;-0.68;100.00;94889.56;5064007;28;19955;-71
2023/11/30 06:38:41;;;;;;;;;;;;;;;-0.67;100.00;94883.44;5063885;28;19938;-69
2023/11/30 06:41:10;;;;;;;;;;;;;;;-0.68;100.00;94876.69;5063671;28;19936;-69
2023/11/30 06:43:37;;;;;;;;;;;;;;;-0.71;100.00;94876.28;5063823;28;19953;-69
2023/11/30 06:46:03;;;;;;;;;;;;;;;-0.74;100.00;94887.72;5063788;28;20157;-70
2023/11/30 06:48:28;;;;;;;;;;;;;;;-0.76;100.00;94881.19;5063769;28;19978;-70
2023/11/30 06:50:54;;;;;;;;;;;;;;;-0.79;100.00;94879.78;5046671;28;19962;-70
2023/11/30 06:53:20;;;;;;;;;;;;;;;-0.75;100.00;94893.88;5063801;28;19948;-70
2023/11/30 06:55:46;;;;;;;;;;;;;;;-0.69;100.00;94889.75;5063777;28;19942;-87
2023/11/30 06:58:12;;;;;;;;;;;;;;;-0.69;100.00;94887.19;5063759;28;19941;-87
2023/11/30 07:00:37;;;;;;;;;;;;;;;-0.70;100.00;94872.72;5063927;28;19935;-87
2023/11/30 07:03:03;;;;;;;;;;;;;;;-0.73;100.00;94867.94;5067347;28;20000;-88
2023/11/30 07:05:29;;;;;;;;;;;;;;;-0.75;100.00;94862.97;5067816;28;20043;-88
2023/11/30 07:07:55;;;;;;;;;;;;;;;-0.76;100.00;94869.09;5067446;28;19938;-88
2023/11/30 07:10:21;;;;;;;;;;;;;;;-0.79;100.00;94863.53;5067681;28;20031;-88
2023/11/30 07:12:47;;;;;;;;;;;;;;;-0.78;100.00;94859.97;5067491;28;19995;-88
2023/11/30 07:15:13;;;;;;;;;;;;;;;-0.79;100.00;94866.13;5067954;28;19975;-89
2023/11/30 07:17:38;;;;;;;;;;;;;;;-0.79;100.00;94869.47;5068040;28;19946;-88
2023/11/30 07:20:06;;;;;;;;;;;;;;;-0.78;100.00;94881.34;5067102;28;19944;-88
2023/11/30 07:22:34;;;;;;;;;;;;;;;-0.79;100.00;94894.44;5067338;28;19939;-88
2023/11/30 07:25:00;;;;;;;;;;;;;;;-0.48;100.00;94897.44;5067260;28;19941;-84
2023/11/30 07:27:26;;;;;;;;;;;;;;;0.42;100.00;94891.56;5067315;28;19942;-84
2023/11/30 07:29:52;;;;;;;;;;;;;;;1.14;100.00;94895.34;5067450;28;19945;-88
2023/11/30 07:32:18;;;;;;;;;;;;;;;1.19;100.00;94888.59;5067110;28;19962;-70
2023/11/30 07:34:46;;;;;;;;;;;;;;;0.97;100.00;94895.72;5067182;28;19943;-70
2023/11/30 07:37:17;;;;;;;;;;;;;;;0.74;100.00;94895.28;5067604;28;19937;-70
2023/11/30 07:39:44;;;;;;;;;;;;;;;0.54;100.00;94893.41;5067879;28;20123;-70
2023/11/30 07:42:10;;;;;;;;;;;;;;;0.38;100.00;94893.78;5049260;28;19943;-70
2023/11/30 07:44:35;;;;;;;;;;;;;;;0.22;100.00;94892.31;5066842;28;19964;-70
2023/11/30 07:47:01;;;;;;;;;;;;;;;0.12;100.00;94881.53;5066939;28;19966;-70
2023/11/30 07:49:27;;;;;;;;;;;;;;;0.03;100.00;94878.34;5066972;28;20039;-71
2023/11/30 07:51:53;;;;;;;;;;;;;;;-0.04;100.00;94886.03;5066920;28;19957;-87
2023/11/30 07:54:19;;;;;;;;;;;;;;;-0.10;100.00;94884.22;5067390;28;19938;-87
2023/11/30 07:56:45;;;;;;;;;;;;;;;-0.13;100.00;94881.22;5066959;28;19931;-87
2023/11/30 07:59:12;;;;;;;;;;;;;;;-0.18;100.00;94881.00;5049095;28;19947;-87
2023/11/30 08:01:39;;;;;;;;;;;;;;;-0.19;100.00;94879.38;5066740;28;19937;-86
2023/11/30 08:04:05;;;;;;;;;;;;;;;-0.23;100.00;94872.06;5048909;28;19947;-86
2023/11/30 08:06:31;;;;;;;;;;;;;;;-0.24;100.00;94885.91;5067506;28;19936;-87
2023/11/30 08:08:57;;;;;;;;;;;;;;;-0.25;100.00;94886.91;5066707;28;19999;-88
2023/11/30 08:11:22;;;;;;;;;;;;;;;-0.27;100.00;94886.28;5067280;28;19959;-88
2023/11/30 08:13:49;;;;;;;;;;;;;;;-0.26;100.00;94875.00;5065663;28;19938;-87
2023/11/30 08:16:15;;;;;;;;;;;;;;;-0.25;100.00;94865.50;5066924;28;19942;-88
2023/11/30 08:18:41;;;;;;;;;;;;;;;-0.25;100.00;94861.16;5066470;28;20243;-87
2023/11/30 08:21:07;;;;;;;;;;;;;;;-0.23;100.00;94863.53;5067138;28;19935;-87
2023/11/30 08:23:33;;;;;;;;;;;;;;;-0.24;100.00;94873.03;5066383;28;19938;-87
2023/11/30 08:25:59;;;;;;;;;;;;;;;-0.21;100.00;94864.13;5066286;28;19958;-87
2023/11/30 08:28:25;;;;;;;;;;;;;;;-0.19;100.00;94864.72;5048518;28;19940;-70
2023/11/30 08:30:54;;;;;;;;;;;;;;;-0.19;100.00;94867.31;5066107;28;20234;-89
2023/11/30 08:33:19;;;;;;;;;;;;;;;-0.16;100.00;94853.25;5066451;28;19935;-87
2023/11/30 08:35:45;;;;;;;;;;;;;;;-0.14;100.00;94854.66;5066324;28;19936;-87
2023/11/30 08:38:11;;;;;;;;;;;;;;;-0.12;100.00;94857.84;5065973;28;19933;-87
2023/11/30 08:40:37;;;;;;;;;;;;;;;-0.07;100.00;94868.38;5065990;28;19936;-87
2023/11/30 08:43:03;;;;;;;;;;;;;;;-0.05;100.00;94868.19;5066526;28;19958;-87
2023/11/30 08:45:30;;;;;;;;;;;;;;;-0.03;100.00;94867.00;5065636;28;20218;-71
2023/11/30 08:47:55;;;;;;;;;;;;;;;0.00;100.00;94871.00;5066707;28;20136;-88
2023/11/30 08:50:21;;;;;;;;;;;;;;;0.04;100.00;94868.81;5065894;28;20013;-87
2023/11/30 08:52:47;;;;;;;;;;;;;;;0.05;100.00;94858.31;5065766;28;19955;-87
2023/11/30 08:55:13;;;;;;;;;;;;;;;0.09;100.00;94854.38;5065777;28;19975;-87
2023/11/30 08:57:40;;;;;;;;;;;;;;;0.13;100.00;94847.84;5066268;28;19943;-87
2023/11/30 09:00:08;;;;;;;;;;;;;;;0.16;100.00;94836.34;5065856;28;19949;-86
2023/11/30 09:02:36;;;;;;;;;;;;;;;0.19;100.00;94831.63;5066103;28;19942;-72
2023/11/30 09:05:02;;;;;;;;;;;;;;;0.24;100.00;94833.63;5065530;28;19943;-86
2023/11/30 09:07:28;;;;;;;;;;;;;;;0.28;100.00;94834.81;5047308;28;19943;-71
2023/11/30 09:09:53;;;;;;;;;;;;;;;0.30;100.00;94840.56;5065701;28;19936;-71
2023/11/30 09:12:19;;;;;;;;;;;;;;;0.33;100.00;94847.91;5065894;28;19976;-70
2023/11/30 09:14:45;;;;;;;;;;;;;;;0.37;100.00;94845.75;5065342;28;20000;-70
2023/11/30 09:17:12;;;;;;;;;;;;;;;0.40;100.00;94850.53;5065223;28;19938;-71
2023/11/30 09:19:37;;;;;;;;;;;;;;;0.44;100.00;94846.56;5065255;28;19961;-70
2023/11/30 09:22:03;;;;;;;;;;;;;;;0.46;100.00;94838.63;5065203;28;20217;-70
2023/11/30 09:24:29;;;;;;;;;;;;;;;0.48;100.00;94836.66;5065161;28;20008;-70
2023/11/30 09:26:55;;;;;;;;;;;;;;;0.51;100.00;94844.81;5065601;28;19942;-70
2023/11/30 09:29:21;;;;;;;;;;;;;;;0.52;100.00;94838.66;5065050;28;20132;-70
2023/11/30 09:31:47;;;;;;;;;;;;;;;0.56;100.00;94849.38;5064934;28;19995;-69
2023/11/30 09:34:13;;;;;;;;;;;;;;;0.58;100.00;94855.94;5064469;28;19951;-70
2023/11/30 09:36:42;;;;;;;;;;;;;;;0.61;100.00;94857.34;5064902;28;19936;-70
2023/11/30 09:39:08;;;;;;;;;;;;;;;0.63;100.00;94865.69;5064856;28;19952;-70
2023/11/30 09:41:38;;;;;;;;;;;;;;;0.66;100.00;94856.75;5065627;28;19936;-83
2023/11/30 09:44:05;;;;;;;;;;;;;;;0.68;100.00;94855.56;5064703;28;19957;-85
2023/11/30 09:46:34;;;;;;;;;;;;;;;0.71;100.00;94851.78;5064324;28;19963;-84
2023/11/30 09:49:00;;;;;;;;;;;;;;;0.83;100.00;94857.19;5064639;28;19951;-80
2023/11/30 09:51:30;;;;;;;;;;;;;;;0.92;100.00;94837.94;5064498;28;19980;-79
2023/11/30 09:53:57;;;;;;;;;;;;;;;1.00;100.00;94841.09;5046304;28;19951;-78
2023/11/30 09:56:26;;;;;;;;;;;;;;;1.14;100.00;94841.13;5064384;28;20022;-78
2023/11/30 09:58:55;;;;;;;;;;;;;;;1.25;100.00;94826.84;5065189;28;20119;-70
2023/11/30 10:01:22;;;;;;;;;;;;;;;1.29;100.00;94840.94;5064552;28;19959;-70
2023/11/30 10:03:48;;;;;;;;;;;;;;;1.28;100.00;94829.81;5064183;28;19944;-69
2023/11/30 10:06:16;;;;;;;;;;;;;;;1.29;100.00;94825.44;5063778;28;19952;-69
2023/11/30 10:08:42;;;;;;;;;;;;;;;1.26;100.00;94810.31;5064974;28;20096;-70
2023/11/30 10:11:09;;;;;;;;;;;;;;;1.25;100.00;94808.75;5063964;28;19941;-69
2023/11/30 10:13:35;;;;;;;;;;;;;;;1.21;100.00;94816.88;5064735;28;19935;-69
2023/11/30 10:16:01;;;;;;;;;;;;;;;1.19;100.00;94805.97;5064899;28;20209;-68
2023/11/30 10:18:27;;;;;;;;;;;;;;;1.19;100.00;94803.38;5064116;28;19944;-69
2023/11/30 10:20:53;;;;;;;;;;;;;;;1.15;100.00;94799.59;5064013;28;19941;-68
2023/11/30 10:23:19;;;;;;;;;;;;;;;1.16;100.00;94805.59;5064070;28;19934;-68
2023/11/30 10:25:46;;;;;;;;;;;;;;;1.20;100.00;94802.41;5063999;28;19968;-68
2023/11/30 10:28:15;;;;;;;;;;;;;;;1.25;100.00;94794.06;5064442;28;19948;-68
2023/11/30 10:30:42;;;;;;;;;;;;;;;1.33;100.00;94800.81;5063848;28;20129;-68
2023/11/30 10:33:11;;;;;;;;;;;;;;;1.41;100.00;94808.34;5063832;28;19954;-67
2023/11/30 10:35:37;;;;;;;;;;;;;;;1.45;100.00;94800.97;5063827;28;20133;-81
2023/11/30 10:38:05;;;;;;;;;;;;;;;1.41;100.00;94795.44;5045620;28;20224;-68
2023/11/30 10:40:31;;;;;;;;;;;;;;;1.36;100.00;94785.69;5063752;28;19935;-68
2023/11/30 10:43:02;;;;;;;;;;;;;;;1.37;100.00;94796.84;5063780;28;20121;-68
2023/11/30 10:45:30;;;;;;;;;;;;;;;1.38;100.00;94791.44;5063600;28;20275;-68
2023/11/30 10:47:56;;;;;;;;;;;;;;;1.37;100.00;94802.78;5064501;28;19944;-68
2023/11/30 10:50:22;;;;;;;;;;;;;;;1.37;100.00;94797.63;5063699;28;19948;-68
2023/11/30 10:52:49;;;;;;;;;;;;;;;1.38;100.00;94800.97;5063547;28;19955;-82
2023/11/30 10:55:19;;;;;;;;;;;;;;;1.36;100.00;94803.75;5063742;28;19942;-69
2023/11/30 10:57:48;;;;;;;;;;;;;;;1.30;100.00;94799.44;5063895;28;19946;-69
2023/11/30 11:00:16;;;;;;;;;;;;;;;1.28;100.00;94801.41;5063860;28;19949;-69
2023/11/30 11:02:43;;;;;;;;;;;;;;;1.24;100.00;94789.06;5063604;28;19959;-70
2023/11/30 11:05:18;;;;;;;;;;;;;;;1.21;100.00;94787.69;5063534;28;19935;-69
2023/11/30 11:07:44;;;;;;;;;;;;;;;1.16;100.00;94779.78;5064377;28;19940;-69
2023/11/30 11:10:19;;;;;;;;;;;;;;;1.15;100.00;94778.16;5063311;28;19975;-69
2023/11/30 11:12:48;;;;;;;;;;;;;;;1.15;100.00;94783.34;5063701;28;19972;-82
2023/11/30 11:15:18;;;;;;;;;;;;;;;1.17;100.00;94782.13;5046344;28;20248;-81
2023/11/30 11:17:48;;;;;;;;;;;;;;;1.17;100.00;94776.19;5063760;28;19951;-82
2023/11/30 11:20:21;;;;;;;;;;;;;;;1.17;100.00;94769.22;5063338;28;19943;-83
2023/11/30 11:22:47;;;;;;;;;;;;;;;1.15;100.00;94773.78;5063448;28;19943;-82
2023/11/30 11:25:14;;;;;;;;;;;;;;;1.16;100.00;94764.28;5063293;28;19943;-83
2023/11/30 11:27:40;;;;;;;;;;;;;;;1.18;100.00;94760.50;5062761;28;19935;-82
2023/11/30 11:30:09;;;;;;;;;;;;;;;1.21;100.00;94754.91;5062991;28;19948;-82
2023/11/30 11:32:35;;;;;;;;;;;;;;;1.27;100.00;94765.47;5044794;28;19959;-69
2023/11/30 11:35:05;;;;;;;;;;;;;;;1.27;100.00;94766.25;5062874;28;20258;-69
2023/11/30 11:37:31;;;;;;;;;;;;;;;1.31;100.00;94767.44;5062538;28;19935;-69
2023/11/30 11:39:57;;;;;;;;;;;;;;;1.32;100.00;94766.41;5062393;28;19936;-69
2023/11/30 11:42:25;;;;;;;;;;;;;;;1.30;100.00;94755.53;5062376;28;21083;-69
2023/11/30 11:44:51;;;;;;;;;;;;;;;1.30;100.00;94752.13;5062539;28;19965;-69
2023/11/30 11:47:17;;;;;;;;;;;;;;;1.32;100.00;94744.97;5062315;28;19962;-69
2023/11/30 11:49:43;;;;;;;;;;;;;;;1.36;100.00;94746.16;5065238;28;19945;-69
2023/11/30 11:52:09;;;;;;;;;;;;;;;1.37;100.00;94750.34;5065935;28;19960;-82
2023/11/30 11:54:35;;;;;;;;;;;;;;;1.36;100.00;94746.94;5066169;28;19938;-82
2023/11/30 11:57:01;;;;;;;;;;;;;;;1.39;100.00;94753.53;5066322;28;19939;-82
2023/11/30 11:59:29;;;;;;;;;;;;;;;1.41;100.00;94757.47;5066115;28;19937;-82
2023/11/30 12:01:55;;;;;;;;;;;;;;;1.42;100.00;94753.09;5066193;28;19931;-84
2023/11/30 12:04:35;;;;;;;;;;;;;;;1.40;100.00;94763.63;5064914;28;19941;-82
2023/11/30 12:07:14;;;;;;;;;;;;;;;1.44;100.00;94753.69;5065656;28;19936;-82
2023/11/30 12:09:40;;;;;;;;;;;;;;;1.49;100.00;94759.06;5066445;28;20106;-69
2023/11/30 12:12:06;;;;;;;;;;;;;;;1.49;100.00;94750.50;5066206;28;20004;-69
2023/11/30 12:14:32;;;;;;;;;;;;;;;1.52;100.00;94748.31;5064824;28;19942;-69
2023/11/30 12:16:58;;;;;;;;;;;;;;;1.54;100.00;94754.06;5066191;28;19933;-69
2023/11/30 12:19:23;;;;;;;;;;;;;;;1.56;100.00;94746.91;5066204;28;20004;-69
2023/11/30 12:21:49;;;;;;;;;;;;;;;1.59;100.00;94732.78;5066078;28;20215;-69
2023/11/30 12:24:15;;;;;;;;;;;;;;;1.61;100.00;94741.13;5066816;28;19986;-69
2023/11/30 12:26:41;;;;;;;;;;;;;;;1.64;100.00;94738.16;5065713;28;20132;-71
2023/11/30 12:29:10;;;;;;;;;;;;;;;1.68;100.00;94738.53;5066451;28;19946;-66
2023/11/30 12:31:35;;;;;;;;;;;;;;;1.72;100.00;94732.75;5048301;28;19949;-67
2023/11/30 12:34:01;;;;;;;;;;;;;;;1.74;100.00;94725.59;5065879;28;19937;-68
2023/11/30 12:36:27;;;;;;;;;;;;;;;1.75;100.00;94703.91;5065019;28;19951;-68